Flight Track Log - Related Links

Times and Time Zones

All times are in EDT time to prevent confusion due to time zone crossing. See the GJS3710 flight status page for this flight to view local times or setup timezone preferences in your user account.

Time Position Orientation Groundspeed Altitude Reporting Facility
EDT Latitude Longitude Course Direction KTS MPH feet Rate Location/Type
Sat 08:53:10 PM 41.9333 -87.9000 66° East 163 188 1,900  Level Chicago TRACON
Sat 08:54:10 PM 41.9000 -87.8333 124° Southeast 226 260 3,500 1,789 Climbing Chicago TRACON
Sat 08:55:04 PM 41.9000 -87.7500 90° East 281 323 5,300 1,444 Climbing Chicago TRACON
Sat 08:55:58 PM 41.9000 -87.6500 90° East 299 344 6,100 1,600 Climbing Chicago TRACON
Sat 08:56:00 PM 42.1599 -87.3705 66° East  Level FlightAware Approximate
Sat 08:57:00 PM 42.2057 -87.2328 66° East  Level FlightAware Approximate
Sat 08:57:04 PM 41.9667 -87.5667 43° Northeast 293 337 8,500  Level Chicago TRACON
Sat 08:58:00 PM 42.2516 -87.0951 66° East  Level FlightAware Approximate
Sat 08:58:23 PM 42.0325 -87.4514 52° Northeast 297 342 11,800  Level Chicago Center
Sat 08:59:25 PM 42.0894 -87.3617 49° Northeast 315 362 13,300 1,333 Climbing Chicago Center
Sat 09:00:29 PM 42.1539 -87.2581 50° Northeast 355 409 14,600 1,488 Climbing Chicago Center
Sat 09:01:30 PM 42.2225 -87.1508 49° Northeast 377 434 16,400 1,707 Climbing Chicago Center
Sat 09:02:32 PM 42.2792 -87.0286 58° Northeast 393 452 18,100 1,805 Climbing Chicago Center
Sat 09:03:33 PM 42.2867 -86.8825 86° East 393 452 20,100 1,902 Climbing Chicago Center
Sat 09:04:35 PM 42.2936 -86.7056 87° East 396 456 22,000 1,561 Climbing Chicago Center
Sat 09:05:36 PM 42.2989 -86.5556 87° East 402 463 23,300 1,024 Climbing Chicago Center
Sat 09:06:38 PM 42.3031 -86.4086 88° East 412 474 24,100 634 Climbing Chicago Center
Sat 09:07:39 PM 42.3089 -86.2461 87° East 431 496 24,600 492 Climbing Chicago Center
Sat 09:08:40 PM 42.3147 -86.0744 87° East 456 525 25,100 780 Climbing Chicago Center
Sat 09:09:42 PM 42.3122 -85.8667 91° East 464 534 26,200 976 Climbing Chicago Center
Sat 09:10:43 PM 42.3094 -85.6942 91° East 464 534 27,100 878 Climbing Chicago Center
Sat 09:11:45 PM 42.3089 -85.5206 90° East 466 536 28,000 878 Climbing Chicago Center
Sat 09:12:46 PM 42.3058 -85.3481 91° East 463 533 28,900 885 Climbing Chicago Center
Sat 09:13:47 PM 42.3028 -85.1750 91° East 464 534 29,800 878 Climbing Chicago Center
Sat 09:14:49 PM 42.2997 -85.0044 91° East 459 528 30,700 878 Climbing Chicago Center
Sat 09:15:50 PM 42.2958 -84.8328 92° East 459 528 31,600 927 Climbing Chicago Center
Sat 09:16:52 PM 42.2897 -84.6275 92° East 458 527 32,600 927 Climbing Chicago Center
Sat 09:17:53 PM 42.2892 -84.4567 90° East 458 527 33,500 923 Climbing Chicago Center
Sat 09:18:23 PM 42.2997 -84.3733 80° East 461 531 34,000 933 Climbing Cleveland Center
Sat 09:19:23 PM 42.3217 -84.2061 80° East 456 525 34,900 900 Climbing Cleveland Center
Sat 09:20:23 PM 42.3458 -84.0361 79° East 456 525 35,800 900 Climbing Cleveland Center
Sat 09:21:23 PM 42.3692 -83.8772 79° East 450 518 36,700 900 Climbing Cleveland Center
Sat 09:22:23 PM 42.3947 -83.7125 78° East 444 511 37,600 750 Climbing Cleveland Center
Sat 09:23:23 PM 42.4069 -83.5642 84° East 444 511 38,200 650 Climbing Cleveland Center
Sat 09:24:23 PM 42.4131 -83.4042 87° East 432 497 38,900 400 Climbing Cleveland Center
Sat 09:25:23 PM 42.4192 -83.2411 87° East 426 490 39,000 50 Climbing Cleveland Center
Sat 09:26:23 PM 42.4269 -83.0697 86° East 432 497 39,000  Level Cleveland Center
Sat 09:27:23 PM 42.4306 -82.9069 88° East 437 503 39,000  Level Cleveland Center
Sat 09:28:23 PM 42.4358 -82.7411 87° East 437 503 39,000  Level Cleveland Center
Sat 09:29:23 PM 42.4408 -82.5753 88° East 437 503 39,000  Level Cleveland Center
Sat 09:30:23 PM 42.4456 -82.4092 88° East 437 503 39,000  Level Cleveland Center
Sat 09:31:23 PM 42.4481 -82.2461 89° East 437 503 39,000  Level Cleveland Center
Sat 09:32:23 PM 42.4544 -82.1000 87° East 437 503 39,000  Level Cleveland Center
Sat 09:33:23 PM 42.4608 -81.9058 87° East 436 502 39,000  Level Cleveland Center
Sat 09:34:23 PM 42.4647 -81.7372 88° East 436 502 39,000  Level Cleveland Center
Sat 09:35:23 PM 42.4664 -81.5711 89° East 436 502 39,000  Level Cleveland Center
Sat 09:36:23 PM 42.4697 -81.4247 88° East 441 507 39,000  Level Cleveland Center
Sat 09:37:23 PM 42.4750 -81.2561 88° East 441 507 39,000  Level Cleveland Center
Sat 09:38:23 PM 42.4778 -81.0869 89° East 441 507 39,000  Level Cleveland Center
Sat 09:39:23 PM 42.4783 -80.9181 90° East 446 513 39,000  Level Cleveland Center
Sat 09:40:23 PM 42.4808 -80.7436 89° East 446 513 39,000  Level Cleveland Center
Sat 09:41:23 PM 42.4831 -80.5633 89° East 446 513 39,000  Level Cleveland Center
Sat 09:42:23 PM 42.4850 -80.3889 89° East 446 513 39,000  Level Cleveland Center
Sat 09:43:23 PM 42.4867 -80.2200 89° East 446 513 39,000  Level Cleveland Center
Sat 09:44:23 PM 42.4903 -80.0539 88° East 446 513 39,000  Level Cleveland Center
Sat 09:45:23 PM 42.4914 -79.8878 89° East 441 507 39,000  Level Cleveland Center
Sat 09:46:23 PM 42.4883 -79.7217 91° East 441 507 39,000  Level Cleveland Center
Sat 09:47:23 PM 42.4931 -79.5556 88° East 441 507 39,000  Level Cleveland Center
Sat 09:48:23 PM 42.4917 -79.3864 91° East 441 507 39,000  Level Cleveland Center
Sat 09:49:23 PM 42.4958 -79.2203 88° East 441 507 39,000  Level Cleveland Center
Sat 09:50:23 PM 42.5083 -79.0539 84° East 441 507 39,000  Level Cleveland Center
Sat 09:51:23 PM 42.5186 -78.8903 85° East 441 507 39,000  Level Cleveland Center
Sat 09:52:23 PM 42.5286 -78.7208 85° East 441 507 39,000  Level Cleveland Center
Sat 09:53:23 PM 42.5403 -78.5542 85° East 441 507 39,000  Level Cleveland Center
Sat 09:54:23 PM 42.5519 -78.3875 85° East 441 507 39,000  Level Cleveland Center
Sat 09:55:23 PM 42.5611 -78.2208 86° East 441 507 39,000 -250 Level Cleveland Center
Sat 09:56:23 PM 42.5700 -78.0514 86° East 441 507 38,500 -650 Descending Cleveland Center
Sat 09:57:23 PM 42.5808 -77.8817 85° East 446 513 37,700 -850 Descending Cleveland Center
Sat 09:58:23 PM 42.6144 -77.7194 74° East 446 513 36,800 -850 Descending Cleveland Center
Sat 09:59:23 PM 42.6667 -77.5617 66° East 446 513 36,000 -750 Descending Cleveland Center
Sat 10:00:23 PM 42.7106 -77.4128 68° East 459 528 35,300 -750 Descending Cleveland Center
Sat 10:01:23 PM 42.7350 -77.2447 79° East 454 522 34,500 -761 Descending Cleveland Center
Sat 10:02:37 PM 42.7369 -77.0344 89° East 456 525 33,600 -761 Descending Boston Center
Sat 10:03:37 PM 42.7397 -76.8594 89° East 456 525 32,800 -800 Descending Boston Center
Sat 10:04:37 PM 42.7444 -76.6814 88° East 461 531 32,000 -650 Descending Boston Center
Sat 10:05:37 PM 42.7447 -76.5033 90° East 461 531 31,500 -864 Descending Boston Center
Sat 10:06:49 PM 42.7481 -76.2886 89° East 466 536 30,100 -1,273 Descending Boston Center
Sat 10:07:49 PM 42.7494 -76.1133 89° East 466 536 28,700 -1,450 Descending Boston Center
Sat 10:08:49 PM 42.7508 -75.9381 89° East 455 524 27,200 -1,500 Descending Boston Center
Sat 10:09:49 PM 42.7519 -75.7656 89° East 460 529 25,700 -1,700 Descending Boston Center
Sat 10:10:49 PM 42.7525 -75.5958 90° East 454 522 23,800 -1,950 Descending Boston Center
Sat 10:11:49 PM 42.7528 -75.4319 90° East 446 513 21,800 -2,000 Descending Boston Center
Sat 10:12:49 PM 42.7550 -75.2708 89° East 434 499 19,800 -2,000 Descending Boston Center
Sat 10:13:49 PM 42.7525 -75.1150 91° East 422 486 17,800 -1,950 Descending Boston Center
Sat 10:14:49 PM 42.7539 -74.9625 89° East 410 472 15,900 -2,034 Descending Boston Center
Sat 10:15:47 PM 42.7531 -74.7983 90° East 398 458 13,800 -2,100 Descending Boston Center
Sat 10:16:29 PM 42.7531 -74.6967 90° East 387 445 12,400 -1,573 Descending Boston Center
Sat 10:17:30 PM 42.7536 -74.5581 90° East 366 421 11,100 -843 Descending Boston Center
Sat 10:18:30 PM 42.7622 -74.4281 85° East 335 386 10,700 -992 Descending Boston Center
Sat 10:19:31 PM 42.7747 -74.3153 81° East 296 341 9,100 -1,623 Descending Boston Center
Sat 10:20:32 PM 42.7889 -74.2056 80° East 293 337 7,400 -1,736 Descending Boston Center
Sat 10:21:32 PM 42.8053 -74.0900 79° East 291 335 5,600 -1,785 Descending Boston Center
Sat 10:22:33 PM 42.8233 -73.9858 77° East 283 326 3,800 -1,672 Descending Boston Center
Sat 10:23:34 PM 42.8436 -73.8842 75° East 273 314 2,200 -992 Descending Boston Center
Sat 10:24:34 PM 42.8361 -73.8133 98° East 174 200 1,800 -545 Descending Boston Center
Sat 10:25:35 PM 42.7964 -73.8097 176° South 108 124 1,100 -645 Descending Boston Center
Sat 10:26:35 PM 42.7631 -73.8061 175° South 117 135 500 -600 Descending Boston Center

Login

Don't have an account? Register now (free) for customized features, flight alerts, and more!